sensor_id;sensor_type;location;lat;lon;timestamp;P1;durP1;ratioP1;P2;durP2;ratioP2
21360;SDS011;10839;43.206;23.550;2024-03-08T00:00:14;60.70;;;30.15;;
21360;SDS011;10839;43.206;23.550;2024-03-08T00:02:43;62.40;;;29.85;;
21360;SDS011;10839;43.206;23.550;2024-03-08T00:05:13;57.78;;;28.80;;
21360;SDS011;10839;43.206;23.550;2024-03-08T00:07:40;58.00;;;29.25;;
21360;SDS011;10839;43.206;23.550;2024-03-08T00:10:07;58.53;;;28.90;;
21360;SDS011;10839;43.206;23.550;2024-03-08T00:12:40;61.35;;;30.08;;
21360;SDS011;10839;43.206;23.550;2024-03-08T00:15:10;42.78;;;21.65;;
21360;SDS011;10839;43.206;23.550;2024-03-08T00:17:38;61.35;;;29.15;;
21360;SDS011;10839;43.206;23.550;2024-03-08T00:20:05;55.42;;;27.80;;
21360;SDS011;10839;43.206;23.550;2024-03-08T00:22:36;57.63;;;29.02;;
21360;SDS011;10839;43.206;23.550;2024-03-08T00:25:06;64.45;;;30.30;;
21360;SDS011;10839;43.206;23.550;2024-03-08T00:27:35;65.00;;;30.95;;
21360;SDS011;10839;43.206;23.550;2024-03-08T00:30:02;62.17;;;30.98;;
21360;SDS011;10839;43.206;23.550;2024-03-08T00:32:28;61.72;;;31.00;;
21360;SDS011;10839;43.206;23.550;2024-03-08T00:34:54;60.45;;;30.60;;
21360;SDS011;10839;43.206;23.550;2024-03-08T00:37:20;65.63;;;32.03;;
21360;SDS011;10839;43.206;23.550;2024-03-08T00:39:50;61.45;;;30.95;;
21360;SDS011;10839;43.206;23.550;2024-03-08T00:42:17;61.42;;;30.90;;
21360;SDS011;10839;43.206;23.550;2024-03-08T00:44:43;65.32;;;31.33;;
21360;SDS011;10839;43.206;23.550;2024-03-08T00:47:08;65.07;;;31.85;;
21360;SDS011;10839;43.206;23.550;2024-03-08T00:49:34;61.42;;;31.38;;
21360;SDS011;10839;43.206;23.550;2024-03-08T00:52:01;64.75;;;31.13;;
21360;SDS011;10839;43.206;23.550;2024-03-08T00:54:27;59.08;;;30.70;;
21360;SDS011;10839;43.206;23.550;2024-03-08T00:56:53;55.30;;;28.48;;
21360;SDS011;10839;43.206;23.550;2024-03-08T00:59:18;62.22;;;29.65;;
21360;SDS011;10839;43.206;23.550;2024-03-08T01:01:44;62.00;;;29.92;;
21360;SDS011;10839;43.206;23.550;2024-03-08T01:04:09;54.50;;;28.27;;
21360;SDS011;10839;43.206;23.550;2024-03-08T01:06:35;57.80;;;29.75;;
21360;SDS011;10839;43.206;23.550;2024-03-08T01:09:01;60.80;;;30.35;;
21360;SDS011;10839;43.206;23.550;2024-03-08T01:11:26;53.05;;;28.30;;
21360;SDS011;10839;43.206;23.550;2024-03-08T01:13:53;52.80;;;27.20;;
21360;SDS011;10839;43.206;23.550;2024-03-08T01:16:18;53.67;;;28.52;;
21360;SDS011;10839;43.206;23.550;2024-03-08T01:18:47;52.40;;;28.13;;
21360;SDS011;10839;43.206;23.550;2024-03-08T01:21:13;48.78;;;27.13;;
21360;SDS011;10839;43.206;23.550;2024-03-08T01:23:38;50.40;;;27.85;;
21360;SDS011;10839;43.206;23.550;2024-03-08T01:26:04;56.20;;;27.45;;
21360;SDS011;10839;43.206;23.550;2024-03-08T01:28:30;48.10;;;25.73;;
21360;SDS011;10839;43.206;23.550;2024-03-08T01:30:55;52.78;;;27.60;;
21360;SDS011;10839;43.206;23.550;2024-03-08T01:33:24;48.42;;;25.85;;
21360;SDS011;10839;43.206;23.550;2024-03-08T01:35:54;50.15;;;27.05;;
21360;SDS011;10839;43.206;23.550;2024-03-08T01:38:20;51.65;;;26.58;;
21360;SDS011;10839;43.206;23.550;2024-03-08T01:40:48;48.03;;;27.15;;
21360;SDS011;10839;43.206;23.550;2024-03-08T01:43:16;50.60;;;26.90;;
21360;SDS011;10839;43.206;23.550;2024-03-08T01:45:45;53.00;;;26.33;;
21360;SDS011;10839;43.206;23.550;2024-03-08T01:48:11;48.13;;;26.67;;
21360;SDS011;10839;43.206;23.550;2024-03-08T01:50:37;47.88;;;26.38;;
21360;SDS011;10839;43.206;23.550;2024-03-08T01:53:04;50.63;;;27.13;;
21360;SDS011;10839;43.206;23.550;2024-03-08T01:55:31;50.55;;;26.13;;
21360;SDS011;10839;43.206;23.550;2024-03-08T01:57:57;43.72;;;24.55;;
21360;SDS011;10839;43.206;23.550;2024-03-08T02:00:24;44.42;;;24.85;;
21360;SDS011;10839;43.206;23.550;2024-03-08T02:02:53;43.45;;;24.10;;
21360;SDS011;10839;43.206;23.550;2024-03-08T02:05:19;38.88;;;22.35;;
21360;SDS011;10839;43.206;23.550;2024-03-08T02:07:45;39.53;;;22.95;;
21360;SDS011;10839;43.206;23.550;2024-03-08T02:10:11;39.97;;;23.20;;
21360;SDS011;10839;43.206;23.550;2024-03-08T02:12:38;37.13;;;22.20;;
21360;SDS011;10839;43.206;23.550;2024-03-08T02:15:04;35.60;;;20.40;;
21360;SDS011;10839;43.206;23.550;2024-03-08T02:17:31;36.03;;;20.75;;
21360;SDS011;10839;43.206;23.550;2024-03-08T02:19:59;32.97;;;19.90;;
21360;SDS011;10839;43.206;23.550;2024-03-08T02:22:26;31.42;;;20.05;;
21360;SDS011;10839;43.206;23.550;2024-03-08T02:24:54;33.95;;;19.63;;
21360;SDS011;10839;43.206;23.550;2024-03-08T02:27:27;34.38;;;19.90;;
21360;SDS011;10839;43.206;23.550;2024-03-08T02:29:55;35.13;;;19.58;;
21360;SDS011;10839;43.206;23.550;2024-03-08T02:32:24;34.65;;;19.88;;
21360;SDS011;10839;43.206;23.550;2024-03-08T02:34:50;33.72;;;19.50;;
21360;SDS011;10839;43.206;23.550;2024-03-08T02:37:16;30.52;;;18.20;;
21360;SDS011;10839;43.206;23.550;2024-03-08T02:39:42;31.25;;;18.65;;
21360;SDS011;10839;43.206;23.550;2024-03-08T02:42:08;33.97;;;18.63;;
21360;SDS011;10839;43.206;23.550;2024-03-08T02:44:33;31.58;;;18.58;;
21360;SDS011;10839;43.206;23.550;2024-03-08T02:46:59;31.95;;;18.58;;
21360;SDS011;10839;43.206;23.550;2024-03-08T02:49:28;31.00;;;19.92;;
21360;SDS011;10839;43.206;23.550;2024-03-08T02:51:54;31.40;;;18.80;;
21360;SDS011;10839;43.206;23.550;2024-03-08T02:54:19;32.67;;;18.55;;
21360;SDS011;10839;43.206;23.550;2024-03-08T02:56:46;33.72;;;18.75;;
21360;SDS011;10839;43.206;23.550;2024-03-08T02:59:17;32.90;;;19.05;;
21360;SDS011;10839;43.206;23.550;2024-03-08T03:01:44;29.90;;;18.20;;
21360;SDS011;10839;43.206;23.550;2024-03-08T03:04:09;34.30;;;19.05;;
21360;SDS011;10839;43.206;23.550;2024-03-08T03:06:35;29.63;;;18.10;;
21360;SDS011;10839;43.206;23.550;2024-03-08T03:09:00;42.03;;;23.98;;
21360;SDS011;10839;43.206;23.550;2024-03-08T03:11:27;59.80;;;33.33;;
21360;SDS011;10839;43.206;23.550;2024-03-08T03:13:52;50.65;;;28.67;;
21360;SDS011;10839;43.206;23.550;2024-03-08T03:16:18;67.47;;;35.80;;
21360;SDS011;10839;43.206;23.550;2024-03-08T03:18:48;73.78;;;36.53;;
21360;SDS011;10839;43.206;23.550;2024-03-08T03:21:14;44.90;;;23.85;;
21360;SDS011;10839;43.206;23.550;2024-03-08T03:23:40;44.25;;;23.70;;
21360;SDS011;10839;43.206;23.550;2024-03-08T03:26:07;41.03;;;23.25;;
21360;SDS011;10839;43.206;23.550;2024-03-08T03:28:33;32.58;;;18.77;;
21360;SDS011;10839;43.206;23.550;2024-03-08T03:30:59;33.90;;;18.73;;
21360;SDS011;10839;43.206;23.550;2024-03-08T03:33:25;28.80;;;16.92;;
21360;SDS011;10839;43.206;23.550;2024-03-08T03:35:50;30.63;;;17.35;;
21360;SDS011;10839;43.206;23.550;2024-03-08T03:38:17;29.92;;;17.65;;
21360;SDS011;10839;43.206;23.550;2024-03-08T03:40:45;29.67;;;16.63;;
21360;SDS011;10839;43.206;23.550;2024-03-08T03:43:11;27.42;;;15.52;;
21360;SDS011;10839;43.206;23.550;2024-03-08T03:45:37;28.52;;;18.10;;
21360;SDS011;10839;43.206;23.550;2024-03-08T03:48:03;116.80;;;60.85;;
21360;SDS011;10839;43.206;23.550;2024-03-08T03:50:29;48.00;;;25.70;;
21360;SDS011;10839;43.206;23.550;2024-03-08T03:52:55;31.48;;;18.90;;
21360;SDS011;10839;43.206;23.550;2024-03-08T03:55:20;27.35;;;17.00;;
21360;SDS011;10839;43.206;23.550;2024-03-08T03:57:47;34.55;;;19.95;;
21360;SDS011;10839;43.206;23.550;2024-03-08T04:00:12;26.65;;;16.75;;
21360;SDS011;10839;43.206;23.550;2024-03-08T04:02:39;25.95;;;16.35;;
21360;SDS011;10839;43.206;23.550;2024-03-08T04:05:09;24.92;;;15.98;;
21360;SDS011;10839;43.206;23.550;2024-03-08T04:07:35;23.92;;;15.60;;
21360;SDS011;10839;43.206;23.550;2024-03-08T04:10:02;25.50;;;16.17;;
21360;SDS011;10839;43.206;23.550;2024-03-08T04:12:28;24.23;;;15.25;;
21360;SDS011;10839;43.206;23.550;2024-03-08T04:14:57;23.55;;;14.80;;
21360;SDS011;10839;43.206;23.550;2024-03-08T04:17:23;50.63;;;28.42;;
21360;SDS011;10839;43.206;23.550;2024-03-08T04:19:51;110.30;;;53.08;;
21360;SDS011;10839;43.206;23.550;2024-03-08T04:22:17;125.40;;;65.60;;
21360;SDS011;10839;43.206;23.550;2024-03-08T04:24:43;103.88;;;57.40;;
21360;SDS011;10839;43.206;23.550;2024-03-08T04:27:09;40.72;;;24.67;;
21360;SDS011;10839;43.206;23.550;2024-03-08T04:29:35;25.50;;;16.70;;
21360;SDS011;10839;43.206;23.550;2024-03-08T04:32:04;24.75;;;15.70;;
21360;SDS011;10839;43.206;23.550;2024-03-08T04:34:31;24.63;;;14.45;;
21360;SDS011;10839;43.206;23.550;2024-03-08T04:36:57;21.73;;;14.35;;
21360;SDS011;10839;43.206;23.550;2024-03-08T04:39:23;25.15;;;15.82;;
21360;SDS011;10839;43.206;23.550;2024-03-08T04:41:49;29.48;;;18.27;;
21360;SDS011;10839;43.206;23.550;2024-03-08T04:44:15;27.15;;;17.60;;
21360;SDS011;10839;43.206;23.550;2024-03-08T04:46:42;23.45;;;14.77;;
21360;SDS011;10839;43.206;23.550;2024-03-08T04:49:08;21.85;;;13.95;;
21360;SDS011;10839;43.206;23.550;2024-03-08T04:51:33;21.50;;;14.02;;
21360;SDS011;10839;43.206;23.550;2024-03-08T04:53:59;43.50;;;23.58;;
21360;SDS011;10839;43.206;23.550;2024-03-08T04:56:25;75.78;;;38.22;;
21360;SDS011;10839;43.206;23.550;2024-03-08T04:58:50;59.40;;;29.80;;
21360;SDS011;10839;43.206;23.550;2024-03-08T05:01:16;41.30;;;22.70;;
21360;SDS011;10839;43.206;23.550;2024-03-08T05:03:42;76.22;;;43.65;;
21360;SDS011;10839;43.206;23.550;2024-03-08T05:06:07;76.45;;;44.05;;
21360;SDS011;10839;43.206;23.550;2024-03-08T05:08:33;42.42;;;25.75;;
21360;SDS011;10839;43.206;23.550;2024-03-08T05:10:59;37.03;;;21.98;;
21360;SDS011;10839;43.206;23.550;2024-03-08T05:13:29;29.10;;;18.10;;
21360;SDS011;10839;43.206;23.550;2024-03-08T05:15:56;27.13;;;17.77;;
21360;SDS011;10839;43.206;23.550;2024-03-08T05:18:23;28.77;;;18.30;;
21360;SDS011;10839;43.206;23.550;2024-03-08T05:20:49;30.33;;;17.33;;
21360;SDS011;10839;43.206;23.550;2024-03-08T05:23:16;29.63;;;18.55;;
21360;SDS011;10839;43.206;23.550;2024-03-08T05:25:41;46.17;;;26.33;;
21360;SDS011;10839;43.206;23.550;2024-03-08T05:28:07;38.60;;;23.17;;
21360;SDS011;10839;43.206;23.550;2024-03-08T05:30:33;32.97;;;19.92;;
21360;SDS011;10839;43.206;23.550;2024-03-08T05:33:01;31.33;;;19.17;;
21360;SDS011;10839;43.206;23.550;2024-03-08T05:35:26;33.33;;;20.27;;
21360;SDS011;10839;43.206;23.550;2024-03-08T05:37:52;28.45;;;18.05;;
21360;SDS011;10839;43.206;23.550;2024-03-08T05:40:17;34.28;;;19.90;;
21360;SDS011;10839;43.206;23.550;2024-03-08T05:42:44;33.58;;;20.58;;
21360;SDS011;10839;43.206;23.550;2024-03-08T05:45:09;35.80;;;20.80;;
21360;SDS011;10839;43.206;23.550;2024-03-08T05:47:36;34.22;;;20.10;;
21360;SDS011;10839;43.206;23.550;2024-03-08T05:50:01;33.58;;;20.35;;
21360;SDS011;10839;43.206;23.550;2024-03-08T05:52:27;39.25;;;22.95;;
21360;SDS011;10839;43.206;23.550;2024-03-08T05:54:52;38.20;;;23.15;;
21360;SDS011;10839;43.206;23.550;2024-03-08T05:57:18;37.38;;;22.85;;
21360;SDS011;10839;43.206;23.550;2024-03-08T05:59:44;37.78;;;22.65;;
21360;SDS011;10839;43.206;23.550;2024-03-08T06:02:09;33.45;;;20.23;;
21360;SDS011;10839;43.206;23.550;2024-03-08T06:04:35;32.97;;;19.88;;
21360;SDS011;10839;43.206;23.550;2024-03-08T06:07:00;42.42;;;22.90;;
21360;SDS011;10839;43.206;23.550;2024-03-08T06:09:28;36.50;;;20.67;;
21360;SDS011;10839;43.206;23.550;2024-03-08T06:11:55;32.78;;;20.00;;
21360;SDS011;10839;43.206;23.550;2024-03-08T06:14:20;31.65;;;19.73;;
21360;SDS011;10839;43.206;23.550;2024-03-08T06:16:46;31.00;;;19.88;;
21360;SDS011;10839;43.206;23.550;2024-03-08T06:19:12;34.88;;;20.67;;
21360;SDS011;10839;43.206;23.550;2024-03-08T06:21:38;35.25;;;20.90;;
21360;SDS011;10839;43.206;23.550;2024-03-08T06:24:04;37.13;;;21.95;;
21360;SDS011;10839;43.206;23.550;2024-03-08T06:26:30;35.42;;;21.67;;
21360;SDS011;10839;43.206;23.550;2024-03-08T06:28:56;33.60;;;21.45;;
21360;SDS011;10839;43.206;23.550;2024-03-08T06:31:21;28.98;;;19.50;;
21360;SDS011;10839;43.206;23.550;2024-03-08T06:33:47;30.65;;;20.40;;
21360;SDS011;10839;43.206;23.550;2024-03-08T06:36:17;32.15;;;19.92;;
21360;SDS011;10839;43.206;23.550;2024-03-08T06:38:50;29.20;;;18.55;;
21360;SDS011;10839;43.206;23.550;2024-03-08T06:41:16;34.83;;;19.60;;
21360;SDS011;10839;43.206;23.550;2024-03-08T06:43:45;35.25;;;20.92;;
21360;SDS011;10839;43.206;23.550;2024-03-08T06:46:11;35.78;;;21.50;;
21360;SDS011;10839;43.206;23.550;2024-03-08T06:48:38;38.28;;;23.52;;
21360;SDS011;10839;43.206;23.550;2024-03-08T06:51:04;39.97;;;23.90;;
21360;SDS011;10839;43.206;23.550;2024-03-08T06:53:30;37.00;;;22.90;;
21360;SDS011;10839;43.206;23.550;2024-03-08T06:55:56;36.40;;;21.55;;
21360;SDS011;10839;43.206;23.550;2024-03-08T06:58:25;33.25;;;20.58;;
21360;SDS011;10839;43.206;23.550;2024-03-08T07:00:50;37.47;;;21.77;;
21360;SDS011;10839;43.206;23.550;2024-03-08T07:03:17;39.45;;;23.63;;
21360;SDS011;10839;43.206;23.550;2024-03-08T07:05:43;39.45;;;23.80;;
21360;SDS011;10839;43.206;23.550;2024-03-08T07:08:11;36.33;;;23.52;;
21360;SDS011;10839;43.206;23.550;2024-03-08T07:10:40;39.42;;;22.95;;
21360;SDS011;10839;43.206;23.550;2024-03-08T07:13:10;34.25;;;20.83;;
21360;SDS011;10839;43.206;23.550;2024-03-08T07:15:36;38.40;;;22.92;;
21360;SDS011;10839;43.206;23.550;2024-03-08T07:18:01;41.78;;;25.23;;
21360;SDS011;10839;43.206;23.550;2024-03-08T07:20:27;41.63;;;23.92;;
21360;SDS011;10839;43.206;23.550;2024-03-08T07:22:53;42.33;;;24.15;;
21360;SDS011;10839;43.206;23.550;2024-03-08T07:25:19;36.85;;;23.13;;
21360;SDS011;10839;43.206;23.550;2024-03-08T07:27:52;36.85;;;22.17;;
21360;SDS011;10839;43.206;23.550;2024-03-08T07:30:19;38.53;;;22.85;;
21360;SDS011;10839;43.206;23.550;2024-03-08T07:33:04;30.25;;;18.63;;
21360;SDS011;10839;43.206;23.550;2024-03-08T07:35:33;32.42;;;19.90;;
21360;SDS011;10839;43.206;23.550;2024-03-08T07:38:03;36.20;;;21.63;;
21360;SDS011;10839;43.206;23.550;2024-03-08T07:40:36;31.00;;;18.90;;
21360;SDS011;10839;43.206;23.550;2024-03-08T07:43:05;24.03;;;14.40;;
21360;SDS011;10839;43.206;23.550;2024-03-08T07:45:31;35.15;;;19.63;;
21360;SDS011;10839;43.206;23.550;2024-03-08T07:47:57;33.08;;;20.63;;
21360;SDS011;10839;43.206;23.550;2024-03-08T07:50:23;31.48;;;19.27;;
21360;SDS011;10839;43.206;23.550;2024-03-08T07:52:49;30.48;;;18.73;;
21360;SDS011;10839;43.206;23.550;2024-03-08T07:55:14;33.38;;;20.13;;
21360;SDS011;10839;43.206;23.550;2024-03-08T07:57:40;30.90;;;18.75;;
21360;SDS011;10839;43.206;23.550;2024-03-08T08:00:08;30.80;;;19.52;;
21360;SDS011;10839;43.206;23.550;2024-03-08T08:02:36;28.05;;;17.17;;
21360;SDS011;10839;43.206;23.550;2024-03-08T08:05:01;26.17;;;16.33;;
21360;SDS011;10839;43.206;23.550;2024-03-08T08:07:27;27.23;;;16.15;;
21360;SDS011;10839;43.206;23.550;2024-03-08T08:09:53;27.17;;;16.15;;
21360;SDS011;10839;43.206;23.550;2024-03-08T08:12:18;28.50;;;17.90;;
21360;SDS011;10839;43.206;23.550;2024-03-08T08:14:44;26.85;;;16.95;;
21360;SDS011;10839;43.206;23.550;2024-03-08T08:17:10;23.13;;;15.10;;
21360;SDS011;10839;43.206;23.550;2024-03-08T08:19:36;26.33;;;16.33;;
21360;SDS011;10839;43.206;23.550;2024-03-08T08:22:01;25.10;;;16.23;;
21360;SDS011;10839;43.206;23.550;2024-03-08T08:24:27;25.98;;;15.48;;
21360;SDS011;10839;43.206;23.550;2024-03-08T08:26:53;24.63;;;16.00;;
21360;SDS011;10839;43.206;23.550;2024-03-08T08:29:19;27.27;;;18.52;;
21360;SDS011;10839;43.206;23.550;2024-03-08T08:31:45;25.00;;;16.85;;
21360;SDS011;10839;43.206;23.550;2024-03-08T08:34:12;25.80;;;16.83;;
21360;SDS011;10839;43.206;23.550;2024-03-08T08:36:39;25.38;;;15.55;;
21360;SDS011;10839;43.206;23.550;2024-03-08T08:39:05;26.52;;;17.17;;
21360;SDS011;10839;43.206;23.550;2024-03-08T08:41:37;26.57;;;15.50;;
21360;SDS011;10839;43.206;23.550;2024-03-08T08:44:03;26.25;;;16.50;;
21360;SDS011;10839;43.206;23.550;2024-03-08T08:46:28;26.42;;;15.68;;
21360;SDS011;10839;43.206;23.550;2024-03-08T08:48:54;26.52;;;16.10;;
21360;SDS011;10839;43.206;23.550;2024-03-08T08:51:19;32.55;;;18.80;;
21360;SDS011;10839;43.206;23.550;2024-03-08T08:53:45;31.45;;;20.88;;
21360;SDS011;10839;43.206;23.550;2024-03-08T08:56:12;34.85;;;21.38;;
21360;SDS011;10839;43.206;23.550;2024-03-08T08:58:39;30.02;;;20.10;;
21360;SDS011;10839;43.206;23.550;2024-03-08T09:01:07;27.30;;;16.90;;
21360;SDS011;10839;43.206;23.550;2024-03-08T09:03:35;26.02;;;15.80;;
21360;SDS011;10839;43.206;23.550;2024-03-08T09:06:03;21.85;;;13.63;;
21360;SDS011;10839;43.206;23.550;2024-03-08T09:08:29;20.77;;;13.40;;
21360;SDS011;10839;43.206;23.550;2024-03-08T09:10:54;21.33;;;13.52;;
21360;SDS011;10839;43.206;23.550;2024-03-08T09:13:20;23.55;;;15.50;;
21360;SDS011;10839;43.206;23.550;2024-03-08T09:15:45;22.13;;;14.93;;
21360;SDS011;10839;43.206;23.550;2024-03-08T09:18:11;25.48;;;16.05;;
21360;SDS011;10839;43.206;23.550;2024-03-08T09:20:36;40.17;;;19.25;;
21360;SDS011;10839;43.206;23.550;2024-03-08T09:23:02;22.05;;;14.57;;
21360;SDS011;10839;43.206;23.550;2024-03-08T09:25:29;27.35;;;17.58;;
21360;SDS011;10839;43.206;23.550;2024-03-08T09:27:55;27.92;;;17.30;;
21360;SDS011;10839;43.206;23.550;2024-03-08T09:30:20;24.02;;;16.80;;
21360;SDS011;10839;43.206;23.550;2024-03-08T09:32:46;28.67;;;17.20;;
21360;SDS011;10839;43.206;23.550;2024-03-08T09:35:12;43.95;;;27.02;;
21360;SDS011;10839;43.206;23.550;2024-03-08T09:37:38;38.97;;;24.02;;
21360;SDS011;10839;43.206;23.550;2024-03-08T09:40:03;26.92;;;18.13;;
21360;SDS011;10839;43.206;23.550;2024-03-08T09:42:37;29.63;;;19.42;;
21360;SDS011;10839;43.206;23.550;2024-03-08T09:45:07;25.92;;;16.77;;
21360;SDS011;10839;43.206;23.550;2024-03-08T09:47:40;29.02;;;18.05;;
21360;SDS011;10839;43.206;23.550;2024-03-08T09:50:07;32.08;;;19.95;;
21360;SDS011;10839;43.206;23.550;2024-03-08T09:52:37;106.00;;;58.60;;
21360;SDS011;10839;43.206;23.550;2024-03-08T09:55:09;51.22;;;31.10;;
21360;SDS011;10839;43.206;23.550;2024-03-08T09:57:39;32.40;;;21.75;;
21360;SDS011;10839;43.206;23.550;2024-03-08T10:00:05;37.75;;;23.85;;
21360;SDS011;10839;43.206;23.550;2024-03-08T10:02:46;24.05;;;15.73;;
21360;SDS011;10839;43.206;23.550;2024-03-08T10:05:12;26.13;;;17.25;;
21360;SDS011;10839;43.206;23.550;2024-03-08T10:07:39;28.08;;;17.10;;
21360;SDS011;10839;43.206;23.550;2024-03-08T10:10:04;25.05;;;15.50;;
21360;SDS011;10839;43.206;23.550;2024-03-08T10:12:30;24.48;;;14.73;;
21360;SDS011;10839;43.206;23.550;2024-03-08T10:14:58;43.58;;;25.30;;
21360;SDS011;10839;43.206;23.550;2024-03-08T10:17:24;55.08;;;32.88;;
21360;SDS011;10839;43.206;23.550;2024-03-08T10:19:50;45.45;;;27.60;;
21360;SDS011;10839;43.206;23.550;2024-03-08T10:22:19;40.50;;;23.23;;
21360;SDS011;10839;43.206;23.550;2024-03-08T10:24:48;42.75;;;25.67;;
21360;SDS011;10839;43.206;23.550;2024-03-08T10:27:14;60.35;;;34.50;;
21360;SDS011;10839;43.206;23.550;2024-03-08T10:29:41;47.20;;;27.88;;
21360;SDS011;10839;43.206;23.550;2024-03-08T10:32:09;35.05;;;20.27;;
21360;SDS011;10839;43.206;23.550;2024-03-08T10:34:35;30.02;;;17.38;;
21360;SDS011;10839;43.206;23.550;2024-03-08T10:37:04;31.17;;;18.60;;
21360;SDS011;10839;43.206;23.550;2024-03-08T10:39:39;28.25;;;17.85;;
21360;SDS011;10839;43.206;23.550;2024-03-08T10:42:14;26.90;;;16.98;;
21360;SDS011;10839;43.206;23.550;2024-03-08T10:44:48;24.02;;;15.52;;
21360;SDS011;10839;43.206;23.550;2024-03-08T10:47:26;24.10;;;14.10;;
21360;SDS011;10839;43.206;23.550;2024-03-08T10:52:41;22.33;;;14.50;;
21360;SDS011;10839;43.206;23.550;2024-03-08T10:55:07;27.58;;;17.13;;
21360;SDS011;10839;43.206;23.550;2024-03-08T10:57:38;25.42;;;16.17;;
21360;SDS011;10839;43.206;23.550;2024-03-08T11:00:06;31.55;;;19.58;;
21360;SDS011;10839;43.206;23.550;2024-03-08T11:02:35;41.95;;;23.50;;
21360;SDS011;10839;43.206;23.550;2024-03-08T11:05:00;47.80;;;25.35;;
21360;SDS011;10839;43.206;23.550;2024-03-08T11:07:33;61.03;;;33.63;;
21360;SDS011;10839;43.206;23.550;2024-03-08T11:10:03;61.30;;;32.95;;
21360;SDS011;10839;43.206;23.550;2024-03-08T11:12:38;53.85;;;29.50;;
21360;SDS011;10839;43.206;23.550;2024-03-08T11:15:11;53.08;;;26.85;;
21360;SDS011;10839;43.206;23.550;2024-03-08T11:20:08;44.67;;;25.67;;
21360;SDS011;10839;43.206;23.550;2024-03-08T11:22:40;48.60;;;26.27;;
21360;SDS011;10839;43.206;23.550;2024-03-08T11:25:15;48.53;;;26.02;;
21360;SDS011;10839;43.206;23.550;2024-03-08T11:28:06;44.65;;;25.55;;
21360;SDS011;10839;43.206;23.550;2024-03-08T11:30:42;50.25;;;26.80;;
21360;SDS011;10839;43.206;23.550;2024-03-08T11:33:12;45.63;;;25.50;;
21360;SDS011;10839;43.206;23.550;2024-03-08T11:35:38;43.35;;;24.05;;
21360;SDS011;10839;43.206;23.550;2024-03-08T11:38:07;48.35;;;28.45;;
21360;SDS011;10839;43.206;23.550;2024-03-08T11:40:33;69.47;;;37.75;;
21360;SDS011;10839;43.206;23.550;2024-03-08T11:43:00;84.15;;;45.60;;
21360;SDS011;10839;43.206;23.550;2024-03-08T11:45:28;71.07;;;40.95;;
21360;SDS011;10839;43.206;23.550;2024-03-08T11:47:54;62.63;;;34.05;;
21360;SDS011;10839;43.206;23.550;2024-03-08T11:50:19;51.75;;;28.00;;
21360;SDS011;10839;43.206;23.550;2024-03-08T11:52:49;45.28;;;26.33;;
21360;SDS011;10839;43.206;23.550;2024-03-08T11:55:14;40.97;;;23.95;;
21360;SDS011;10839;43.206;23.550;2024-03-08T11:57:40;39.72;;;23.20;;
21360;SDS011;10839;43.206;23.550;2024-03-08T12:00:11;38.90;;;23.27;;
21360;SDS011;10839;43.206;23.550;2024-03-08T12:02:46;43.90;;;24.20;;
21360;SDS011;10839;43.206;23.550;2024-03-08T12:05:15;40.78;;;24.90;;
21360;SDS011;10839;43.206;23.550;2024-03-08T12:07:41;41.40;;;24.20;;
21360;SDS011;10839;43.206;23.550;2024-03-08T12:10:15;38.78;;;22.98;;
21360;SDS011;10839;43.206;23.550;2024-03-08T12:12:48;48.53;;;26.30;;
21360;SDS011;10839;43.206;23.550;2024-03-08T12:15:16;135.75;;;70.43;;
21360;SDS011;10839;43.206;23.550;2024-03-08T12:17:43;86.65;;;45.58;;
21360;SDS011;10839;43.206;23.550;2024-03-08T12:25:25;46.80;;;26.80;;
21360;SDS011;10839;43.206;23.550;2024-03-08T12:27:51;48.67;;;27.27;;
21360;SDS011;10839;43.206;23.550;2024-03-08T12:33:03;46.30;;;25.15;;
21360;SDS011;10839;43.206;23.550;2024-03-08T12:37:56;45.45;;;25.83;;
21360;SDS011;10839;43.206;23.550;2024-03-08T12:40:26;46.38;;;26.05;;
21360;SDS011;10839;43.206;23.550;2024-03-08T12:42:53;47.33;;;26.38;;
21360;SDS011;10839;43.206;23.550;2024-03-08T12:45:23;43.50;;;24.08;;
21360;SDS011;10839;43.206;23.550;2024-03-08T12:47:50;47.72;;;26.60;;
21360;SDS011;10839;43.206;23.550;2024-03-08T12:50:19;50.83;;;27.60;;
21360;SDS011;10839;43.206;23.550;2024-03-08T12:52:45;49.00;;;27.85;;
21360;SDS011;10839;43.206;23.550;2024-03-08T12:55:10;53.92;;;30.80;;
21360;SDS011;10839;43.206;23.550;2024-03-08T12:57:37;51.75;;;27.77;;
21360;SDS011;10839;43.206;23.550;2024-03-08T13:00:03;64.97;;;33.10;;
21360;SDS011;10839;43.206;23.550;2024-03-08T13:02:29;67.07;;;35.40;;
21360;SDS011;10839;43.206;23.550;2024-03-08T13:04:57;62.97;;;34.40;;
21360;SDS011;10839;43.206;23.550;2024-03-08T13:07:24;67.60;;;35.38;;
21360;SDS011;10839;43.206;23.550;2024-03-08T13:09:53;67.05;;;34.53;;
21360;SDS011;10839;43.206;23.550;2024-03-08T13:12:20;67.72;;;35.95;;
21360;SDS011;10839;43.206;23.550;2024-03-08T13:14:46;68.78;;;36.67;;
21360;SDS011;10839;43.206;23.550;2024-03-08T13:17:13;66.30;;;34.03;;
21360;SDS011;10839;43.206;23.550;2024-03-08T13:19:39;68.55;;;35.42;;
21360;SDS011;10839;43.206;23.550;2024-03-08T13:22:05;63.00;;;33.38;;
21360;SDS011;10839;43.206;23.550;2024-03-08T13:24:31;63.47;;;32.35;;
21360;SDS011;10839;43.206;23.550;2024-03-08T13:26:56;67.13;;;34.90;;
21360;SDS011;10839;43.206;23.550;2024-03-08T13:29:23;67.13;;;35.13;;
21360;SDS011;10839;43.206;23.550;2024-03-08T13:31:49;79.05;;;38.33;;
21360;SDS011;10839;43.206;23.550;2024-03-08T13:34:19;68.80;;;34.42;;
21360;SDS011;10839;43.206;23.550;2024-03-08T13:36:53;67.45;;;33.08;;
21360;SDS011;10839;43.206;23.550;2024-03-08T13:39:24;66.90;;;34.17;;
21360;SDS011;10839;43.206;23.550;2024-03-08T13:41:51;67.25;;;33.65;;
21360;SDS011;10839;43.206;23.550;2024-03-08T13:44:16;105.38;;;51.15;;
21360;SDS011;10839;43.206;23.550;2024-03-08T13:46:42;97.45;;;48.92;;
21360;SDS011;10839;43.206;23.550;2024-03-08T13:49:08;76.57;;;39.35;;
21360;SDS011;10839;43.206;23.550;2024-03-08T13:51:35;86.25;;;41.63;;
21360;SDS011;10839;43.206;23.550;2024-03-08T13:54:01;76.80;;;38.70;;
21360;SDS011;10839;43.206;23.550;2024-03-08T13:56:29;68.80;;;35.63;;
21360;SDS011;10839;43.206;23.550;2024-03-08T13:58:56;69.75;;;34.75;;
21360;SDS011;10839;43.206;23.550;2024-03-08T14:01:22;71.30;;;36.88;;
21360;SDS011;10839;43.206;23.550;2024-03-08T14:03:48;102.68;;;50.85;;
21360;SDS011;10839;43.206;23.550;2024-03-08T14:06:14;95.78;;;48.58;;
21360;SDS011;10839;43.206;23.550;2024-03-08T14:08:40;85.15;;;43.97;;
21360;SDS011;10839;43.206;23.550;2024-03-08T14:11:05;76.88;;;38.83;;
21360;SDS011;10839;43.206;23.550;2024-03-08T14:13:44;69.10;;;36.47;;
21360;SDS011;10839;43.206;23.550;2024-03-08T14:16:13;60.38;;;32.38;;
21360;SDS011;10839;43.206;23.550;2024-03-08T14:18:39;67.65;;;34.63;;
21360;SDS011;10839;43.206;23.550;2024-03-08T14:21:05;64.75;;;33.22;;
21360;SDS011;10839;43.206;23.550;2024-03-08T14:23:30;67.05;;;32.92;;